
<gpx xmlns="http://www.topografix.com/GPX/1/1" xmlns:gpxx="http://www.garmin.com/xmlschemas/GpxExtensions/v3" xmlns:xsi="http://www.w3.org/2001/XMLSchema-instance" version="1.1" creator="Adze - http://kobotsw.com/apps/adze" xsi:schemaLocation="http://www.topografix.com/GPX/1/1 http://www.topografix.com/GPX/1/1/gpx.xsd http://www.garmin.com/xmlschemas/GpxExtensions/v3 http://www.garmin.com/xmlschemas/GpxExtensionsv3.xsd">
    <metadata>
        <name>Untitled Document</name>
        <link href="http://www.garmin.com"></link>
        <time>2018-02-26T06:38:36.247Z</time>
    </metadata>
    <wpt lon="101.338531" lat="13.734936">
        <ele>19.000000</ele>
        <time>2014-12-13T05:30:52Z</time>
        <name>LannaResort</name>
        <sym>Lodging</sym>
        <extensions>
            <gpxx:WaypointExtension xmlns:gpxx="http://www.garmin.com/xmlschemas/GpxExtensions/v3">
                <gpxx:DisplayMode>SymbolAndName</gpxx:DisplayMode>
            </gpxx:WaypointExtension>
        </extensions>
    </wpt>
    <wpt lon="101.337047" lat="13.641165">
        <ele>56.000000</ele>
        <time>2014-12-13T07:13:32Z</time>
        <name>Water Sat</name>
        <sym>Drinking Water</sym>
        <extensions>
            <gpxx:WaypointExtension xmlns:gpxx="http://www.garmin.com/xmlschemas/GpxExtensions/v3">
                <gpxx:DisplayMode>SymbolAndName</gpxx:DisplayMode>
            </gpxx:WaypointExtension>
        </extensions>
    </wpt>
    <trk>
        <name>Saturday</name>
        <extensions>
            <gpxx:TrackExtension xmlns:gpxx="http://www.garmin.com/xmlschemas/GpxExtensions/v3">
                <gpxx:DisplayColor>Red</gpxx:DisplayColor>
            </gpxx:TrackExtension>
        </extensions>
        <trkseg>
            <trkpt lon="101.338571" lat="13.734821">
                <ele>13.120000</ele>
                <time>2014-12-13T06:03:10Z</time>
            </trkpt>
            <trkpt lon="101.338577" lat="13.734820">
                <ele>15.040000</ele>
                <time>2014-12-13T06:03:23Z</time>
            </trkpt>
            <trkpt lon="101.338610" lat="13.735012">
                <ele>18.880000</ele>
                <time>2014-12-13T06:03:34Z</time>
            </trkpt>
            <trkpt lon="101.338416" lat="13.735124">
                <ele>16.960000</ele>
                <time>2014-12-13T06:03:41Z</time>
            </trkpt>
            <trkpt lon="101.338415" lat="13.735233">
                <ele>16.480000</ele>
                <time>2014-12-13T06:03:44Z</time>
            </trkpt>
            <trkpt lon="101.338435" lat="13.735312">
                <ele>16.000000</ele>
                <time>2014-12-13T06:03:46Z</time>
            </trkpt>
            <trkpt lon="101.338768" lat="13.736293">
                <ele>12.630000</ele>
                <time>2014-12-13T06:04:10Z</time>
            </trkpt>
            <trkpt lon="101.338771" lat="13.736813">
                <ele>13.600000</ele>
                <time>2014-12-13T06:04:25Z</time>
            </trkpt>
            <trkpt lon="101.339996" lat="13.737998">
                <ele>12.150000</ele>
                <time>2014-12-13T06:05:04Z</time>
            </trkpt>
            <trkpt lon="101.340156" lat="13.737436">
                <ele>11.670000</ele>
                <time>2014-12-13T06:05:24Z</time>
            </trkpt>
            <trkpt lon="101.338678" lat="13.721083">
                <ele>10.230000</ele>
                <time>2014-12-13T06:10:53Z</time>
            </trkpt>
            <trkpt lon="101.338672" lat="13.720469">
                <ele>10.710000</ele>
                <time>2014-12-13T06:11:22Z</time>
            </trkpt>
            <trkpt lon="101.341366" lat="13.720486">
                <ele>10.710000</ele>
                <time>2014-12-13T06:12:53Z</time>
            </trkpt>
            <trkpt lon="101.341746" lat="13.720578">
                <ele>9.750000</ele>
                <time>2014-12-13T06:13:06Z</time>
            </trkpt>
            <trkpt lon="101.342414" lat="13.720821">
                <ele>10.230000</ele>
                <time>2014-12-13T06:13:22Z</time>
            </trkpt>
            <trkpt lon="101.342915" lat="13.720802">
                <ele>10.230000</ele>
                <time>2014-12-13T06:13:36Z</time>
            </trkpt>
            <trkpt lon="101.343009" lat="13.720783">
                <ele>10.230000</ele>
                <time>2014-12-13T06:13:38Z</time>
            </trkpt>
            <trkpt lon="101.343108" lat="13.720786">
                <ele>10.710000</ele>
                <time>2014-12-13T06:13:40Z</time>
            </trkpt>
            <trkpt lon="101.343207" lat="13.720806">
                <ele>10.710000</ele>
                <time>2014-12-13T06:13:42Z</time>
            </trkpt>
            <trkpt lon="101.344636" lat="13.721082">
                <ele>10.230000</ele>
                <time>2014-12-13T06:14:14Z</time>
            </trkpt>
            <trkpt lon="101.344668" lat="13.720287">
                <ele>9.750000</ele>
                <time>2014-12-13T06:14:37Z</time>
            </trkpt>
            <trkpt lon="101.346242" lat="13.719967">
                <ele>10.710000</ele>
                <time>2014-12-13T06:15:33Z</time>
            </trkpt>
            <trkpt lon="101.346264" lat="13.719983">
                <ele>9.750000</ele>
                <time>2014-12-13T06:15:56Z</time>
            </trkpt>
            <trkpt lon="101.347829" lat="13.719320">
                <ele>13.600000</ele>
                <time>2014-12-13T06:17:56Z</time>
            </trkpt>
            <trkpt lon="101.348108" lat="13.719210">
                <ele>12.150000</ele>
                <time>2014-12-13T06:18:11Z</time>
            </trkpt>
            <trkpt lon="101.348678" lat="13.718326">
                <ele>10.230000</ele>
                <time>2014-12-13T06:19:11Z</time>
            </trkpt>
            <trkpt lon="101.349174" lat="13.717349">
                <ele>12.150000</ele>
                <time>2014-12-13T06:22:19Z</time>
            </trkpt>
            <trkpt lon="101.349210" lat="13.716951">
                <ele>11.670000</ele>
                <time>2014-12-13T06:22:35Z</time>
            </trkpt>
            <trkpt lon="101.349800" lat="13.717132">
                <ele>10.710000</ele>
                <time>2014-12-13T06:22:57Z</time>
            </trkpt>
            <trkpt lon="101.350848" lat="13.717041">
                <ele>16.480000</ele>
                <time>2014-12-13T06:23:27Z</time>
            </trkpt>
            <trkpt lon="101.351799" lat="13.716823">
                <ele>13.600000</ele>
                <time>2014-12-13T06:23:50Z</time>
            </trkpt>
            <trkpt lon="101.351868" lat="13.715850">
                <ele>13.600000</ele>
                <time>2014-12-13T06:24:24Z</time>
            </trkpt>
            <trkpt lon="101.351924" lat="13.715220">
                <ele>11.190000</ele>
                <time>2014-12-13T06:24:42Z</time>
            </trkpt>
            <trkpt lon="101.353428" lat="13.714702">
                <ele>11.670000</ele>
                <time>2014-12-13T06:25:22Z</time>
            </trkpt>
            <trkpt lon="101.353433" lat="13.714592">
                <ele>12.150000</ele>
                <time>2014-12-13T06:25:25Z</time>
            </trkpt>
            <trkpt lon="101.353419" lat="13.712782">
                <ele>12.630000</ele>
                <time>2014-12-13T06:26:00Z</time>
            </trkpt>
            <trkpt lon="101.353393" lat="13.711459">
                <ele>11.670000</ele>
                <time>2014-12-13T06:26:24Z</time>
            </trkpt>
            <trkpt lon="101.355231" lat="13.711279">
                <ele>11.190000</ele>
                <time>2014-12-13T06:27:00Z</time>
            </trkpt>
            <trkpt lon="101.358265" lat="13.710402">
                <ele>11.670000</ele>
                <time>2014-12-13T06:27:57Z</time>
            </trkpt>
            <trkpt lon="101.359076" lat="13.710031">
                <ele>11.670000</ele>
                <time>2014-12-13T06:28:13Z</time>
            </trkpt>
            <trkpt lon="101.360065" lat="13.709882">
                <ele>11.670000</ele>
                <time>2014-12-13T06:28:31Z</time>
            </trkpt>
            <trkpt lon="101.360877" lat="13.709976">
                <ele>12.150000</ele>
                <time>2014-12-13T06:28:47Z</time>
            </trkpt>
            <trkpt lon="101.360931" lat="13.709972">
                <ele>12.150000</ele>
                <time>2014-12-13T06:28:48Z</time>
            </trkpt>
            <trkpt lon="101.362036" lat="13.709696">
                <ele>12.630000</ele>
                <time>2014-12-13T06:29:09Z</time>
            </trkpt>
            <trkpt lon="101.361774" lat="13.707626">
                <ele>13.600000</ele>
                <time>2014-12-13T06:29:46Z</time>
            </trkpt>
            <trkpt lon="101.361747" lat="13.705521">
                <ele>14.560000</ele>
                <time>2014-12-13T06:30:21Z</time>
            </trkpt>
            <trkpt lon="101.361844" lat="13.705450">
                <ele>15.520000</ele>
                <time>2014-12-13T06:30:24Z</time>
            </trkpt>
            <trkpt lon="101.364975" lat="13.705396">
                <ele>13.600000</ele>
                <time>2014-12-13T06:31:18Z</time>
            </trkpt>
            <trkpt lon="101.364899" lat="13.705033">
                <ele>13.600000</ele>
                <time>2014-12-13T06:31:27Z</time>
            </trkpt>
            <trkpt lon="101.364093" lat="13.705024">
                <ele>14.080000</ele>
                <time>2014-12-13T06:31:42Z</time>
            </trkpt>
            <trkpt lon="101.363921" lat="13.704983">
                <ele>14.080000</ele>
                <time>2014-12-13T06:31:46Z</time>
            </trkpt>
            <trkpt lon="101.364166" lat="13.702055">
                <ele>14.080000</ele>
                <time>2014-12-13T06:32:33Z</time>
            </trkpt>
            <trkpt lon="101.364582" lat="13.701082">
                <ele>13.600000</ele>
                <time>2014-12-13T06:32:49Z</time>
            </trkpt>
            <trkpt lon="101.364941" lat="13.697040">
                <ele>14.080000</ele>
                <time>2014-12-13T06:33:55Z</time>
            </trkpt>
            <trkpt lon="101.364932" lat="13.696895">
                <ele>14.080000</ele>
                <time>2014-12-13T06:33:58Z</time>
            </trkpt>
            <trkpt lon="101.364850" lat="13.696854">
                <ele>14.080000</ele>
                <time>2014-12-13T06:34:00Z</time>
            </trkpt>
            <trkpt lon="101.364672" lat="13.696759">
                <ele>13.120000</ele>
                <time>2014-12-13T06:34:04Z</time>
            </trkpt>
            <trkpt lon="101.364649" lat="13.696647">
                <ele>13.120000</ele>
                <time>2014-12-13T06:34:06Z</time>
            </trkpt>
            <trkpt lon="101.364719" lat="13.695605">
                <ele>13.600000</ele>
                <time>2014-12-13T06:34:23Z</time>
            </trkpt>
            <trkpt lon="101.364752" lat="13.695523">
                <ele>13.600000</ele>
                <time>2014-12-13T06:34:25Z</time>
            </trkpt>
            <trkpt lon="101.365009" lat="13.695427">
                <ele>14.560000</ele>
                <time>2014-12-13T06:34:31Z</time>
            </trkpt>
            <trkpt lon="101.365070" lat="13.695292">
                <ele>14.080000</ele>
                <time>2014-12-13T06:34:34Z</time>
            </trkpt>
            <trkpt lon="101.365091" lat="13.694245">
                <ele>15.520000</ele>
                <time>2014-12-13T06:35:00Z</time>
            </trkpt>
            <trkpt lon="101.365061" lat="13.694193">
                <ele>17.440000</ele>
                <time>2014-12-13T06:35:51Z</time>
            </trkpt>
            <trkpt lon="101.364492" lat="13.689131">
                <ele>16.000000</ele>
                <time>2014-12-13T06:37:53Z</time>
            </trkpt>
            <trkpt lon="101.363266" lat="13.688597">
                <ele>15.520000</ele>
                <time>2014-12-13T06:38:18Z</time>
            </trkpt>
            <trkpt lon="101.362461" lat="13.687875">
                <ele>16.960000</ele>
                <time>2014-12-13T06:38:37Z</time>
            </trkpt>
            <trkpt lon="101.361441" lat="13.687311">
                <ele>16.480000</ele>
                <time>2014-12-13T06:38:57Z</time>
            </trkpt>
            <trkpt lon="101.361031" lat="13.686927">
                <ele>16.960000</ele>
                <time>2014-12-13T06:39:09Z</time>
            </trkpt>
            <trkpt lon="101.361164" lat="13.685517">
                <ele>17.440000</ele>
                <time>2014-12-13T06:39:38Z</time>
            </trkpt>
            <trkpt lon="101.361576" lat="13.684062">
                <ele>18.880000</ele>
                <time>2014-12-13T06:40:07Z</time>
            </trkpt>
            <trkpt lon="101.361750" lat="13.683091">
                <ele>18.880000</ele>
                <time>2014-12-13T06:40:27Z</time>
            </trkpt>
            <trkpt lon="101.361762" lat="13.682205">
                <ele>19.840000</ele>
                <time>2014-12-13T06:40:45Z</time>
            </trkpt>
            <trkpt lon="101.361538" lat="13.681707">
                <ele>19.840000</ele>
                <time>2014-12-13T06:40:57Z</time>
            </trkpt>
            <trkpt lon="101.361172" lat="13.681359">
                <ele>19.360000</ele>
                <time>2014-12-13T06:41:08Z</time>
            </trkpt>
            <trkpt lon="101.360882" lat="13.681201">
                <ele>18.400000</ele>
                <time>2014-12-13T06:41:15Z</time>
            </trkpt>
            <trkpt lon="101.360503" lat="13.680869">
                <ele>17.920000</ele>
                <time>2014-12-13T06:41:25Z</time>
            </trkpt>
            <trkpt lon="101.359328" lat="13.680706">
                <ele>16.960000</ele>
                <time>2014-12-13T06:41:49Z</time>
            </trkpt>
            <trkpt lon="101.358841" lat="13.680412">
                <ele>17.440000</ele>
                <time>2014-12-13T06:42:02Z</time>
            </trkpt>
            <trkpt lon="101.358423" lat="13.678965">
                <ele>21.290000</ele>
                <time>2014-12-13T06:42:37Z</time>
            </trkpt>
            <trkpt lon="101.358337" lat="13.678604">
                <ele>20.810000</ele>
                <time>2014-12-13T06:42:45Z</time>
            </trkpt>
            <trkpt lon="101.358238" lat="13.678460">
                <ele>20.810000</ele>
                <time>2014-12-13T06:42:50Z</time>
            </trkpt>
            <trkpt lon="101.357180" lat="13.678280">
                <ele>19.360000</ele>
                <time>2014-12-13T06:43:18Z</time>
            </trkpt>
            <trkpt lon="101.356685" lat="13.678176">
                <ele>18.880000</ele>
                <time>2014-12-13T06:43:32Z</time>
            </trkpt>
            <trkpt lon="101.355119" lat="13.677907">
                <ele>18.880000</ele>
                <time>2014-12-13T06:44:14Z</time>
            </trkpt>
            <trkpt lon="101.354523" lat="13.677233">
                <ele>21.290000</ele>
                <time>2014-12-13T06:44:40Z</time>
            </trkpt>
            <trkpt lon="101.353910" lat="13.676880">
                <ele>22.250000</ele>
                <time>2014-12-13T06:44:58Z</time>
            </trkpt>
            <trkpt lon="101.354011" lat="13.676374">
                <ele>22.250000</ele>
                <time>2014-12-13T06:45:16Z</time>
            </trkpt>
            <trkpt lon="101.354567" lat="13.675776">
                <ele>23.210000</ele>
                <time>2014-12-13T06:45:38Z</time>
            </trkpt>
            <trkpt lon="101.354925" lat="13.675058">
                <ele>24.170000</ele>
                <time>2014-12-13T06:46:00Z</time>
            </trkpt>
            <trkpt lon="101.355434" lat="13.674712">
                <ele>24.170000</ele>
                <time>2014-12-13T06:46:15Z</time>
            </trkpt>
            <trkpt lon="101.355532" lat="13.674391">
                <ele>25.130000</ele>
                <time>2014-12-13T06:46:25Z</time>
            </trkpt>
            <trkpt lon="101.354928" lat="13.672822">
                <ele>28.020000</ele>
                <time>2014-12-13T06:47:08Z</time>
            </trkpt>
            <trkpt lon="101.354846" lat="13.672254">
                <ele>28.020000</ele>
                <time>2014-12-13T06:47:24Z</time>
            </trkpt>
            <trkpt lon="101.354825" lat="13.672202">
                <ele>28.500000</ele>
                <time>2014-12-13T06:47:26Z</time>
            </trkpt>
            <trkpt lon="101.350282" lat="13.672458">
                <ele>27.050000</ele>
                <time>2014-12-13T06:49:16Z</time>
            </trkpt>
            <trkpt lon="101.348683" lat="13.672376">
                <ele>24.650000</ele>
                <time>2014-12-13T06:49:52Z</time>
            </trkpt>
            <trkpt lon="101.348428" lat="13.672873">
                <ele>25.130000</ele>
                <time>2014-12-13T06:50:09Z</time>
            </trkpt>
            <trkpt lon="101.346231" lat="13.673427">
                <ele>22.730000</ele>
                <time>2014-12-13T06:50:53Z</time>
            </trkpt>
            <trkpt lon="101.346165" lat="13.673381">
                <ele>23.690000</ele>
                <time>2014-12-13T06:50:56Z</time>
            </trkpt>
            <trkpt lon="101.346379" lat="13.672457">
                <ele>25.130000</ele>
                <time>2014-12-13T06:51:20Z</time>
            </trkpt>
            <trkpt lon="101.346066" lat="13.670528">
                <ele>28.020000</ele>
                <time>2014-12-13T06:52:04Z</time>
            </trkpt>
            <trkpt lon="101.346105" lat="13.669989">
                <ele>27.050000</ele>
                <time>2014-12-13T06:52:18Z</time>
            </trkpt>
            <trkpt lon="101.346304" lat="13.669540">
                <ele>26.570000</ele>
                <time>2014-12-13T06:52:32Z</time>
            </trkpt>
            <trkpt lon="101.346707" lat="13.669066">
                <ele>26.090000</ele>
                <time>2014-12-13T06:52:49Z</time>
            </trkpt>
            <trkpt lon="101.347848" lat="13.667941">
                <ele>26.570000</ele>
                <time>2014-12-13T06:53:33Z</time>
            </trkpt>
            <trkpt lon="101.348112" lat="13.667220">
                <ele>27.050000</ele>
                <time>2014-12-13T06:53:55Z</time>
            </trkpt>
            <trkpt lon="101.347945" lat="13.666849">
                <ele>27.050000</ele>
                <time>2014-12-13T06:54:04Z</time>
            </trkpt>
            <trkpt lon="101.347472" lat="13.666473">
                <ele>27.050000</ele>
                <time>2014-12-13T06:54:18Z</time>
            </trkpt>
            <trkpt lon="101.346723" lat="13.665492">
                <ele>26.570000</ele>
                <time>2014-12-13T06:54:45Z</time>
            </trkpt>
            <trkpt lon="101.345874" lat="13.663970">
                <ele>30.420000</ele>
                <time>2014-12-13T06:55:24Z</time>
            </trkpt>
            <trkpt lon="101.345532" lat="13.663470">
                <ele>31.860000</ele>
                <time>2014-12-13T06:55:36Z</time>
            </trkpt>
            <trkpt lon="101.344912" lat="13.662764">
                <ele>31.380000</ele>
                <time>2014-12-13T06:55:55Z</time>
            </trkpt>
            <trkpt lon="101.344182" lat="13.662137">
                <ele>30.900000</ele>
                <time>2014-12-13T06:56:14Z</time>
            </trkpt>
            <trkpt lon="101.343421" lat="13.661060">
                <ele>29.940000</ele>
                <time>2014-12-13T06:56:39Z</time>
            </trkpt>
            <trkpt lon="101.343779" lat="13.658957">
                <ele>31.380000</ele>
                <time>2014-12-13T06:57:25Z</time>
            </trkpt>
            <trkpt lon="101.343744" lat="13.658896">
                <ele>30.900000</ele>
                <time>2014-12-13T06:57:35Z</time>
            </trkpt>
            <trkpt lon="101.343767" lat="13.658914">
                <ele>34.260000</ele>
                <time>2014-12-13T06:58:03Z</time>
            </trkpt>
            <trkpt lon="101.343770" lat="13.659221">
                <ele>34.260000</ele>
                <time>2014-12-13T06:58:15Z</time>
            </trkpt>
            <trkpt lon="101.343375" lat="13.661032">
                <ele>30.420000</ele>
                <time>2014-12-13T06:59:38Z</time>
            </trkpt>
            <trkpt lon="101.343371" lat="13.661036">
                <ele>29.460000</ele>
                <time>2014-12-13T07:00:32Z</time>
            </trkpt>
            <trkpt lon="101.343357" lat="13.661043">
                <ele>31.860000</ele>
                <time>2014-12-13T07:02:28Z</time>
            </trkpt>
            <trkpt lon="101.343324" lat="13.661033">
                <ele>30.900000</ele>
                <time>2014-12-13T07:02:45Z</time>
            </trkpt>
            <trkpt lon="101.342859" lat="13.660854">
                <ele>31.380000</ele>
                <time>2014-12-13T07:03:46Z</time>
            </trkpt>
            <trkpt lon="101.342186" lat="13.660711">
                <ele>30.900000</ele>
                <time>2014-12-13T07:04:03Z</time>
            </trkpt>
            <trkpt lon="101.340904" lat="13.660817">
                <ele>29.460000</ele>
                <time>2014-12-13T07:04:34Z</time>
            </trkpt>
            <trkpt lon="101.340283" lat="13.660064">
                <ele>28.980000</ele>
                <time>2014-12-13T07:04:55Z</time>
            </trkpt>
            <trkpt lon="101.339710" lat="13.659492">
                <ele>30.900000</ele>
                <time>2014-12-13T07:05:13Z</time>
            </trkpt>
            <trkpt lon="101.339491" lat="13.657393">
                <ele>35.710000</ele>
                <time>2014-12-13T07:05:58Z</time>
            </trkpt>
            <trkpt lon="101.339755" lat="13.655830">
                <ele>36.670000</ele>
                <time>2014-12-13T07:06:32Z</time>
            </trkpt>
            <trkpt lon="101.339841" lat="13.655108">
                <ele>36.670000</ele>
                <time>2014-12-13T07:06:46Z</time>
            </trkpt>
            <trkpt lon="101.339562" lat="13.654738">
                <ele>37.630000</ele>
                <time>2014-12-13T07:06:56Z</time>
            </trkpt>
            <trkpt lon="101.338837" lat="13.654520">
                <ele>38.110000</ele>
                <time>2014-12-13T07:07:10Z</time>
            </trkpt>
            <trkpt lon="101.338172" lat="13.654877">
                <ele>36.190000</ele>
                <time>2014-12-13T07:07:27Z</time>
            </trkpt>
            <trkpt lon="101.338041" lat="13.654796">
                <ele>36.670000</ele>
                <time>2014-12-13T07:07:31Z</time>
            </trkpt>
            <trkpt lon="101.337970" lat="13.652367">
                <ele>38.590000</ele>
                <time>2014-12-13T07:08:22Z</time>
            </trkpt>
            <trkpt lon="101.338287" lat="13.649675">
                <ele>44.360000</ele>
                <time>2014-12-13T07:09:21Z</time>
            </trkpt>
            <trkpt lon="101.338481" lat="13.648840">
                <ele>43.880000</ele>
                <time>2014-12-13T07:09:40Z</time>
            </trkpt>
            <trkpt lon="101.338487" lat="13.648173">
                <ele>43.880000</ele>
                <time>2014-12-13T07:10:04Z</time>
            </trkpt>
            <trkpt lon="101.337405" lat="13.642541">
                <ele>72.240000</ele>
                <time>2014-12-13T07:12:18Z</time>
            </trkpt>
            <trkpt lon="101.337246" lat="13.641963">
                <ele>70.310000</ele>
                <time>2014-12-13T07:12:36Z</time>
            </trkpt>
            <trkpt lon="101.337199" lat="13.641588">
                <ele>60.220000</ele>
                <time>2014-12-13T07:12:56Z</time>
            </trkpt>
            <trkpt lon="101.337199" lat="13.641461">
                <ele>55.410000</ele>
                <time>2014-12-13T07:13:15Z</time>
            </trkpt>
            <trkpt lon="101.337173" lat="13.641386">
                <ele>54.930000</ele>
                <time>2014-12-13T07:13:17Z</time>
            </trkpt>
            <trkpt lon="101.337092" lat="13.641194">
                <ele>55.410000</ele>
                <time>2014-12-13T07:13:24Z</time>
            </trkpt>
            <trkpt lon="101.337080" lat="13.641109">
                <ele>52.050000</ele>
                <time>2014-12-13T07:24:00Z</time>
            </trkpt>
            <trkpt lon="101.337078" lat="13.639968">
                <ele>58.780000</ele>
                <time>2014-12-13T07:24:47Z</time>
            </trkpt>
            <trkpt lon="101.338162" lat="13.639818">
                <ele>65.030000</ele>
                <time>2014-12-13T07:25:20Z</time>
            </trkpt>
            <trkpt lon="101.338786" lat="13.639440">
                <ele>65.510000</ele>
                <time>2014-12-13T07:25:45Z</time>
            </trkpt>
            <trkpt lon="101.338772" lat="13.638733">
                <ele>70.310000</ele>
                <time>2014-12-13T07:26:26Z</time>
            </trkpt>
            <trkpt lon="101.338672" lat="13.638767">
                <ele>70.790000</ele>
                <time>2014-12-13T07:26:34Z</time>
            </trkpt>
            <trkpt lon="101.338635" lat="13.638758">
                <ele>70.790000</ele>
                <time>2014-12-13T07:26:37Z</time>
            </trkpt>
            <trkpt lon="101.338666" lat="13.638676">
                <ele>70.790000</ele>
                <time>2014-12-13T07:26:46Z</time>
            </trkpt>
            <trkpt lon="101.338731" lat="13.638547">
                <ele>75.120000</ele>
                <time>2014-12-13T07:27:11Z</time>
            </trkpt>
            <trkpt lon="101.339141" lat="13.638125">
                <ele>77.520000</ele>
                <time>2014-12-13T07:28:08Z</time>
            </trkpt>
            <trkpt lon="101.339156" lat="13.637955">
                <ele>78.970000</ele>
                <time>2014-12-13T07:28:22Z</time>
            </trkpt>
            <trkpt lon="101.339168" lat="13.637936">
                <ele>78.970000</ele>
                <time>2014-12-13T07:28:24Z</time>
            </trkpt>
            <trkpt lon="101.339268" lat="13.637940">
                <ele>80.890000</ele>
                <time>2014-12-13T07:28:33Z</time>
            </trkpt>
            <trkpt lon="101.339292" lat="13.638073">
                <ele>82.810000</ele>
                <time>2014-12-13T07:28:43Z</time>
            </trkpt>
            <trkpt lon="101.339441" lat="13.638118">
                <ele>80.890000</ele>
                <time>2014-12-13T07:28:54Z</time>
            </trkpt>
            <trkpt lon="101.339490" lat="13.638033">
                <ele>79.450000</ele>
                <time>2014-12-13T07:29:03Z</time>
            </trkpt>
            <trkpt lon="101.339641" lat="13.638058">
                <ele>78.970000</ele>
                <time>2014-12-13T07:29:17Z</time>
            </trkpt>
            <trkpt lon="101.339787" lat="13.638070">
                <ele>75.120000</ele>
                <time>2014-12-13T07:29:25Z</time>
            </trkpt>
            <trkpt lon="101.340283" lat="13.637802">
                <ele>72.240000</ele>
                <time>2014-12-13T07:29:54Z</time>
            </trkpt>
            <trkpt lon="101.340345" lat="13.637199">
                <ele>93.870000</ele>
                <time>2014-12-13T07:30:30Z</time>
            </trkpt>
            <trkpt lon="101.340412" lat="13.637150">
                <ele>94.350000</ele>
                <time>2014-12-13T07:30:36Z</time>
            </trkpt>
            <trkpt lon="101.340956" lat="13.637416">
                <ele>98.190000</ele>
                <time>2014-12-13T07:33:02Z</time>
            </trkpt>
            <trkpt lon="101.341293" lat="13.637457">
                <ele>93.390000</ele>
                <time>2014-12-13T07:33:24Z</time>
            </trkpt>
            <trkpt lon="101.341611" lat="13.637456">
                <ele>81.850000</ele>
                <time>2014-12-13T07:33:39Z</time>
            </trkpt>
            <trkpt lon="101.342149" lat="13.637828">
                <ele>89.540000</ele>
                <time>2014-12-13T07:34:16Z</time>
            </trkpt>
            <trkpt lon="101.342885" lat="13.637650">
                <ele>75.120000</ele>
                <time>2014-12-13T07:35:10Z</time>
            </trkpt>
            <trkpt lon="101.343159" lat="13.637444">
                <ele>78.000000</ele>
                <time>2014-12-13T07:35:33Z</time>
            </trkpt>
            <trkpt lon="101.343785" lat="13.637342">
                <ele>73.680000</ele>
                <time>2014-12-13T07:36:18Z</time>
            </trkpt>
            <trkpt lon="101.344943" lat="13.636904">
                <ele>65.990000</ele>
                <time>2014-12-13T07:36:49Z</time>
            </trkpt>
            <trkpt lon="101.345332" lat="13.636707">
                <ele>65.030000</ele>
                <time>2014-12-13T07:36:59Z</time>
            </trkpt>
            <trkpt lon="101.345822" lat="13.635561">
                <ele>65.990000</ele>
                <time>2014-12-13T07:37:25Z</time>
            </trkpt>
            <trkpt lon="101.347019" lat="13.634391">
                <ele>67.430000</ele>
                <time>2014-12-13T07:37:56Z</time>
            </trkpt>
            <trkpt lon="101.348403" lat="13.633845">
                <ele>61.180000</ele>
                <time>2014-12-13T07:38:30Z</time>
            </trkpt>
            <trkpt lon="101.350204" lat="13.632498">
                <ele>62.140000</ele>
                <time>2014-12-13T07:39:18Z</time>
            </trkpt>
            <trkpt lon="101.351255" lat="13.632148">
                <ele>61.660000</ele>
                <time>2014-12-13T07:39:45Z</time>
            </trkpt>
            <trkpt lon="101.352043" lat="13.631343">
                <ele>64.550000</ele>
                <time>2014-12-13T07:40:15Z</time>
            </trkpt>
            <trkpt lon="101.353529" lat="13.631305">
                <ele>60.220000</ele>
                <time>2014-12-13T07:40:52Z</time>
            </trkpt>
            <trkpt lon="101.354221" lat="13.630534">
                <ele>69.350000</ele>
                <time>2014-12-13T07:41:24Z</time>
            </trkpt>
            <trkpt lon="101.354276" lat="13.630336">
                <ele>74.160000</ele>
                <time>2014-12-13T07:41:36Z</time>
            </trkpt>
            <trkpt lon="101.354751" lat="13.630359">
                <ele>79.450000</ele>
                <time>2014-12-13T07:41:56Z</time>
            </trkpt>
            <trkpt lon="101.355407" lat="13.629828">
                <ele>80.410000</ele>
                <time>2014-12-13T07:42:23Z</time>
            </trkpt>
            <trkpt lon="101.354992" lat="13.628457">
                <ele>89.540000</ele>
                <time>2014-12-13T07:43:35Z</time>
            </trkpt>
            <trkpt lon="101.354506" lat="13.628552">
                <ele>95.310000</ele>
                <time>2014-12-13T07:44:17Z</time>
            </trkpt>
            <trkpt lon="101.354339" lat="13.628298">
                <ele>98.670000</ele>
                <time>2014-12-13T07:44:37Z</time>
            </trkpt>
            <trkpt lon="101.354062" lat="13.627960">
                <ele>114.530000</ele>
                <time>2014-12-13T07:45:07Z</time>
            </trkpt>
            <trkpt lon="101.353587" lat="13.627812">
                <ele>115.980000</ele>
                <time>2014-12-13T07:45:37Z</time>
            </trkpt>
            <trkpt lon="101.353538" lat="13.627256">
                <ele>127.510000</ele>
                <time>2014-12-13T07:46:19Z</time>
            </trkpt>
            <trkpt lon="101.353401" lat="13.627034">
                <ele>125.590000</ele>
                <time>2014-12-13T07:46:36Z</time>
            </trkpt>
            <trkpt lon="101.353205" lat="13.626863">
                <ele>128.950000</ele>
                <time>2014-12-13T07:46:59Z</time>
            </trkpt>
            <trkpt lon="101.352418" lat="13.626809">
                <ele>143.850000</ele>
                <time>2014-12-13T07:48:02Z</time>
            </trkpt>
            <trkpt lon="101.352368" lat="13.626808">
                <ele>147.700000</ele>
                <time>2014-12-13T07:48:20Z</time>
            </trkpt>
            <trkpt lon="101.352152" lat="13.626766">
                <ele>150.580000</ele>
                <time>2014-12-13T07:48:52Z</time>
            </trkpt>
            <trkpt lon="101.352041" lat="13.626708">
                <ele>154.430000</ele>
                <time>2014-12-13T07:49:10Z</time>
            </trkpt>
            <trkpt lon="101.351892" lat="13.626361">
                <ele>156.830000</ele>
                <time>2014-12-13T07:49:56Z</time>
            </trkpt>
            <trkpt lon="101.351515" lat="13.626129">
                <ele>169.810000</ele>
                <time>2014-12-13T07:50:53Z</time>
            </trkpt>
            <trkpt lon="101.351407" lat="13.626078">
                <ele>171.730000</ele>
                <time>2014-12-13T07:51:05Z</time>
            </trkpt>
            <trkpt lon="101.351325" lat="13.625384">
                <ele>173.660000</ele>
                <time>2014-12-13T07:52:25Z</time>
            </trkpt>
            <trkpt lon="101.351562" lat="13.625234">
                <ele>175.100000</ele>
                <time>2014-12-13T07:53:02Z</time>
            </trkpt>
            <trkpt lon="101.351555" lat="13.625203">
                <ele>174.620000</ele>
                <time>2014-12-13T07:53:26Z</time>
            </trkpt>
            <trkpt lon="101.351596" lat="13.625193">
                <ele>171.730000</ele>
                <time>2014-12-13T07:53:58Z</time>
            </trkpt>
            <trkpt lon="101.351387" lat="13.624917">
                <ele>170.770000</ele>
                <time>2014-12-13T07:56:30Z</time>
            </trkpt>
            <trkpt lon="101.351092" lat="13.624722">
                <ele>168.850000</ele>
                <time>2014-12-13T07:56:57Z</time>
            </trkpt>
            <trkpt lon="101.350789" lat="13.624808">
                <ele>171.250000</ele>
                <time>2014-12-13T07:57:26Z</time>
            </trkpt>
            <trkpt lon="101.350724" lat="13.625070">
                <ele>179.420000</ele>
                <time>2014-12-13T07:57:49Z</time>
            </trkpt>
            <trkpt lon="101.350968" lat="13.625172">
                <ele>179.900000</ele>
                <time>2014-12-13T07:58:17Z</time>
            </trkpt>
            <trkpt lon="101.350910" lat="13.625315">
                <ele>180.380000</ele>
                <time>2014-12-13T07:58:28Z</time>
            </trkpt>
            <trkpt lon="101.350780" lat="13.625290">
                <ele>177.500000</ele>
                <time>2014-12-13T07:58:41Z</time>
            </trkpt>
            <trkpt lon="101.350799" lat="13.625442">
                <ele>178.940000</ele>
                <time>2014-12-13T07:59:01Z</time>
            </trkpt>
            <trkpt lon="101.351040" lat="13.625533">
                <ele>177.980000</ele>
                <time>2014-12-13T07:59:24Z</time>
            </trkpt>
            <trkpt lon="101.351047" lat="13.625580">
                <ele>174.140000</ele>
                <time>2014-12-13T07:59:41Z</time>
            </trkpt>
            <trkpt lon="101.350779" lat="13.625670">
                <ele>174.620000</ele>
                <time>2014-12-13T08:00:35Z</time>
            </trkpt>
            <trkpt lon="101.350684" lat="13.625713">
                <ele>175.580000</ele>
                <time>2014-12-13T08:00:42Z</time>
            </trkpt>
            <trkpt lon="101.350535" lat="13.625745">
                <ele>179.420000</ele>
                <time>2014-12-13T08:00:52Z</time>
            </trkpt>
            <trkpt lon="101.350232" lat="13.625918">
                <ele>181.830000</ele>
                <time>2014-12-13T08:01:20Z</time>
            </trkpt>
            <trkpt lon="101.350140" lat="13.626006">
                <ele>179.420000</ele>
                <time>2014-12-13T08:01:33Z</time>
            </trkpt>
            <trkpt lon="101.350266" lat="13.626141">
                <ele>183.750000</ele>
                <time>2014-12-13T08:01:55Z</time>
            </trkpt>
            <trkpt lon="101.350139" lat="13.626264">
                <ele>182.790000</ele>
                <time>2014-12-13T08:02:08Z</time>
            </trkpt>
            <trkpt lon="101.349916" lat="13.626220">
                <ele>175.580000</ele>
                <time>2014-12-13T08:02:44Z</time>
            </trkpt>
            <trkpt lon="101.349873" lat="13.626545">
                <ele>182.310000</ele>
                <time>2014-12-13T08:03:41Z</time>
            </trkpt>
            <trkpt lon="101.349822" lat="13.626683">
                <ele>183.270000</ele>
                <time>2014-12-13T08:03:53Z</time>
            </trkpt>
            <trkpt lon="101.349694" lat="13.626945">
                <ele>174.620000</ele>
                <time>2014-12-13T08:04:21Z</time>
            </trkpt>
            <trkpt lon="101.349459" lat="13.627159">
                <ele>170.770000</ele>
                <time>2014-12-13T08:05:08Z</time>
            </trkpt>
            <trkpt lon="101.349348" lat="13.627345">
                <ele>167.890000</ele>
                <time>2014-12-13T08:05:30Z</time>
            </trkpt>
            <trkpt lon="101.349015" lat="13.627542">
                <ele>168.370000</ele>
                <time>2014-12-13T08:06:00Z</time>
            </trkpt>
            <trkpt lon="101.349181" lat="13.627997">
                <ele>152.990000</ele>
                <time>2014-12-13T08:07:20Z</time>
            </trkpt>
            <trkpt lon="101.348653" lat="13.628228">
                <ele>160.680000</ele>
                <time>2014-12-13T08:08:05Z</time>
            </trkpt>
            <trkpt lon="101.348432" lat="13.628371">
                <ele>157.310000</ele>
                <time>2014-12-13T08:08:35Z</time>
            </trkpt>
            <trkpt lon="101.348145" lat="13.628257">
                <ele>159.240000</ele>
                <time>2014-12-13T08:09:17Z</time>
            </trkpt>
            <trkpt lon="101.348019" lat="13.628276">
                <ele>157.790000</ele>
                <time>2014-12-13T08:09:32Z</time>
            </trkpt>
            <trkpt lon="101.347825" lat="13.628607">
                <ele>154.910000</ele>
                <time>2014-12-13T08:10:22Z</time>
            </trkpt>
            <trkpt lon="101.347935" lat="13.628740">
                <ele>149.620000</ele>
                <time>2014-12-13T08:11:15Z</time>
            </trkpt>
            <trkpt lon="101.347632" lat="13.628885">
                <ele>153.470000</ele>
                <time>2014-12-13T08:11:58Z</time>
            </trkpt>
            <trkpt lon="101.347495" lat="13.628906">
                <ele>152.030000</ele>
                <time>2014-12-13T08:12:06Z</time>
            </trkpt>
            <trkpt lon="101.347514" lat="13.629007">
                <ele>153.470000</ele>
                <time>2014-12-13T08:12:18Z</time>
            </trkpt>
            <trkpt lon="101.347434" lat="13.629131">
                <ele>153.470000</ele>
                <time>2014-12-13T08:12:35Z</time>
            </trkpt>
            <trkpt lon="101.347412" lat="13.629255">
                <ele>148.660000</ele>
                <time>2014-12-13T08:13:01Z</time>
            </trkpt>
            <trkpt lon="101.347512" lat="13.629348">
                <ele>142.410000</ele>
                <time>2014-12-13T08:13:28Z</time>
            </trkpt>
            <trkpt lon="101.347409" lat="13.629399">
                <ele>145.300000</ele>
                <time>2014-12-13T08:13:40Z</time>
            </trkpt>
            <trkpt lon="101.347167" lat="13.629413">
                <ele>149.140000</ele>
                <time>2014-12-13T08:13:58Z</time>
            </trkpt>
            <trkpt lon="101.346958" lat="13.629444">
                <ele>149.140000</ele>
                <time>2014-12-13T08:14:11Z</time>
            </trkpt>
            <trkpt lon="101.346762" lat="13.629540">
                <ele>144.820000</ele>
                <time>2014-12-13T08:14:28Z</time>
            </trkpt>
            <trkpt lon="101.347034" lat="13.629612">
                <ele>138.570000</ele>
                <time>2014-12-13T08:15:25Z</time>
            </trkpt>
            <trkpt lon="101.346922" lat="13.629768">
                <ele>135.200000</ele>
                <time>2014-12-13T08:16:01Z</time>
            </trkpt>
            <trkpt lon="101.346900" lat="13.629831">
                <ele>134.720000</ele>
                <time>2014-12-13T08:16:18Z</time>
            </trkpt>
            <trkpt lon="101.346855" lat="13.629965">
                <ele>135.680000</ele>
                <time>2014-12-13T08:16:31Z</time>
            </trkpt>
            <trkpt lon="101.346879" lat="13.630045">
                <ele>132.800000</ele>
                <time>2014-12-13T08:16:38Z</time>
            </trkpt>
            <trkpt lon="101.346711" lat="13.630113">
                <ele>130.400000</ele>
                <time>2014-12-13T08:17:07Z</time>
            </trkpt>
            <trkpt lon="101.346636" lat="13.629928">
                <ele>135.680000</ele>
                <time>2014-12-13T08:17:33Z</time>
            </trkpt>
            <trkpt lon="101.346561" lat="13.629888">
                <ele>136.160000</ele>
                <time>2014-12-13T08:17:46Z</time>
            </trkpt>
            <trkpt lon="101.346356" lat="13.629999">
                <ele>136.160000</ele>
                <time>2014-12-13T08:18:07Z</time>
            </trkpt>
            <trkpt lon="101.346236" lat="13.630194">
                <ele>136.160000</ele>
                <time>2014-12-13T08:18:22Z</time>
            </trkpt>
            <trkpt lon="101.345778" lat="13.630568">
                <ele>126.550000</ele>
                <time>2014-12-13T08:19:21Z</time>
            </trkpt>
            <trkpt lon="101.345623" lat="13.630485">
                <ele>125.110000</ele>
                <time>2014-12-13T08:19:33Z</time>
            </trkpt>
            <trkpt lon="101.345375" lat="13.630326">
                <ele>121.740000</ele>
                <time>2014-12-13T08:19:48Z</time>
            </trkpt>
            <trkpt lon="101.344850" lat="13.630201">
                <ele>114.530000</ele>
                <time>2014-12-13T08:20:15Z</time>
            </trkpt>
            <trkpt lon="101.344139" lat="13.630458">
                <ele>111.170000</ele>
                <time>2014-12-13T08:21:49Z</time>
            </trkpt>
            <trkpt lon="101.343216" lat="13.630662">
                <ele>103.000000</ele>
                <time>2014-12-13T08:22:42Z</time>
            </trkpt>
            <trkpt lon="101.342974" lat="13.630778">
                <ele>97.710000</ele>
                <time>2014-12-13T08:22:56Z</time>
            </trkpt>
            <trkpt lon="101.342485" lat="13.631135">
                <ele>90.020000</ele>
                <time>2014-12-13T08:23:47Z</time>
            </trkpt>
            <trkpt lon="101.342055" lat="13.631492">
                <ele>76.560000</ele>
                <time>2014-12-13T08:25:03Z</time>
            </trkpt>
            <trkpt lon="101.342034" lat="13.631728">
                <ele>78.000000</ele>
                <time>2014-12-13T08:25:33Z</time>
            </trkpt>
            <trkpt lon="101.341815" lat="13.632175">
                <ele>72.240000</ele>
                <time>2014-12-13T08:26:15Z</time>
            </trkpt>
            <trkpt lon="101.341192" lat="13.632306">
                <ele>65.990000</ele>
                <time>2014-12-13T08:27:16Z</time>
            </trkpt>
            <trkpt lon="101.340199" lat="13.632840">
                <ele>64.550000</ele>
                <time>2014-12-13T08:28:17Z</time>
            </trkpt>
            <trkpt lon="101.339495" lat="13.633234">
                <ele>67.430000</ele>
                <time>2014-12-13T08:29:00Z</time>
            </trkpt>
            <trkpt lon="101.339186" lat="13.633522">
                <ele>70.790000</ele>
                <time>2014-12-13T08:29:23Z</time>
            </trkpt>
            <trkpt lon="101.338995" lat="13.633732">
                <ele>73.680000</ele>
                <time>2014-12-13T08:29:51Z</time>
            </trkpt>
            <trkpt lon="101.338853" lat="13.633867">
                <ele>73.680000</ele>
                <time>2014-12-13T08:30:21Z</time>
            </trkpt>
            <trkpt lon="101.338554" lat="13.633927">
                <ele>67.430000</ele>
                <time>2014-12-13T08:30:57Z</time>
            </trkpt>
            <trkpt lon="101.337920" lat="13.634643">
                <ele>70.310000</ele>
                <time>2014-12-13T08:32:20Z</time>
            </trkpt>
            <trkpt lon="101.337689" lat="13.634830">
                <ele>65.510000</ele>
                <time>2014-12-13T08:32:56Z</time>
            </trkpt>
            <trkpt lon="101.337439" lat="13.635058">
                <ele>71.760000</ele>
                <time>2014-12-13T08:33:23Z</time>
            </trkpt>
            <trkpt lon="101.337363" lat="13.635136">
                <ele>68.870000</ele>
                <time>2014-12-13T08:33:31Z</time>
            </trkpt>
            <trkpt lon="101.336967" lat="13.635601">
                <ele>74.160000</ele>
                <time>2014-12-13T08:34:27Z</time>
            </trkpt>
            <trkpt lon="101.336824" lat="13.635798">
                <ele>67.430000</ele>
                <time>2014-12-13T08:34:54Z</time>
            </trkpt>
            <trkpt lon="101.336786" lat="13.636171">
                <ele>68.870000</ele>
                <time>2014-12-13T08:35:21Z</time>
            </trkpt>
            <trkpt lon="101.336556" lat="13.636500">
                <ele>62.620000</ele>
                <time>2014-12-13T08:35:54Z</time>
            </trkpt>
            <trkpt lon="101.336431" lat="13.636645">
                <ele>55.410000</ele>
                <time>2014-12-13T08:36:21Z</time>
            </trkpt>
            <trkpt lon="101.336173" lat="13.637214">
                <ele>53.970000</ele>
                <time>2014-12-13T08:37:02Z</time>
            </trkpt>
            <trkpt lon="101.336192" lat="13.637691">
                <ele>58.780000</ele>
                <time>2014-12-13T08:37:51Z</time>
            </trkpt>
            <trkpt lon="101.336078" lat="13.638425">
                <ele>55.890000</ele>
                <time>2014-12-13T08:39:21Z</time>
            </trkpt>
            <trkpt lon="101.336401" lat="13.639119">
                <ele>54.930000</ele>
                <time>2014-12-13T08:39:49Z</time>
            </trkpt>
            <trkpt lon="101.336570" lat="13.639931">
                <ele>54.930000</ele>
                <time>2014-12-13T08:40:13Z</time>
            </trkpt>
            <trkpt lon="101.336957" lat="13.639929">
                <ele>55.890000</ele>
                <time>2014-12-13T08:40:29Z</time>
            </trkpt>
            <trkpt lon="101.337004" lat="13.639999">
                <ele>55.890000</ele>
                <time>2014-12-13T08:40:32Z</time>
            </trkpt>
            <trkpt lon="101.337020" lat="13.640106">
                <ele>55.890000</ele>
                <time>2014-12-13T08:40:35Z</time>
            </trkpt>
            <trkpt lon="101.337058" lat="13.640925">
                <ele>55.890000</ele>
                <time>2014-12-13T08:43:45Z</time>
            </trkpt>
            <trkpt lon="101.337159" lat="13.641106">
                <ele>54.450000</ele>
                <time>2014-12-13T08:44:13Z</time>
            </trkpt>
            <trkpt lon="101.337243" lat="13.641472">
                <ele>50.130000</ele>
                <time>2014-12-13T08:44:34Z</time>
            </trkpt>
            <trkpt lon="101.337169" lat="13.641710">
                <ele>51.090000</ele>
                <time>2014-12-13T08:45:12Z</time>
            </trkpt>
            <trkpt lon="101.337097" lat="13.641681">
                <ele>50.610000</ele>
                <time>2014-12-13T08:45:14Z</time>
            </trkpt>
            <trkpt lon="101.336310" lat="13.641298">
                <ele>49.160000</ele>
                <time>2014-12-13T08:45:31Z</time>
            </trkpt>
            <trkpt lon="101.335265" lat="13.640820">
                <ele>47.240000</ele>
                <time>2014-12-13T08:45:52Z</time>
            </trkpt>
            <trkpt lon="101.335193" lat="13.640867">
                <ele>46.760000</ele>
                <time>2014-12-13T08:45:54Z</time>
            </trkpt>
            <trkpt lon="101.334443" lat="13.641787">
                <ele>40.990000</ele>
                <time>2014-12-13T08:46:13Z</time>
            </trkpt>
            <trkpt lon="101.333486" lat="13.642733">
                <ele>35.230000</ele>
                <time>2014-12-13T08:46:35Z</time>
            </trkpt>
            <trkpt lon="101.333892" lat="13.643415">
                <ele>35.230000</ele>
                <time>2014-12-13T08:46:55Z</time>
            </trkpt>
            <trkpt lon="101.333936" lat="13.644016">
                <ele>35.710000</ele>
                <time>2014-12-13T08:47:09Z</time>
            </trkpt>
            <trkpt lon="101.333822" lat="13.644016">
                <ele>35.710000</ele>
                <time>2014-12-13T08:47:13Z</time>
            </trkpt>
            <trkpt lon="101.333009" lat="13.643889">
                <ele>34.740000</ele>
                <time>2014-12-13T08:47:35Z</time>
            </trkpt>
            <trkpt lon="101.332738" lat="13.643628">
                <ele>33.780000</ele>
                <time>2014-12-13T08:47:44Z</time>
            </trkpt>
            <trkpt lon="101.332344" lat="13.643529">
                <ele>31.860000</ele>
                <time>2014-12-13T08:47:53Z</time>
            </trkpt>
            <trkpt lon="101.331694" lat="13.643436">
                <ele>30.420000</ele>
                <time>2014-12-13T08:48:07Z</time>
            </trkpt>
            <trkpt lon="101.330926" lat="13.644517">
                <ele>30.420000</ele>
                <time>2014-12-13T08:48:39Z</time>
            </trkpt>
            <trkpt lon="101.331526" lat="13.644755">
                <ele>30.900000</ele>
                <time>2014-12-13T08:49:00Z</time>
            </trkpt>
            <trkpt lon="101.332233" lat="13.644774">
                <ele>32.340000</ele>
                <time>2014-12-13T08:49:17Z</time>
            </trkpt>
            <trkpt lon="101.333339" lat="13.644679">
                <ele>34.260000</ele>
                <time>2014-12-13T08:49:45Z</time>
            </trkpt>
            <trkpt lon="101.333854" lat="13.644472">
                <ele>36.190000</ele>
                <time>2014-12-13T08:50:00Z</time>
            </trkpt>
            <trkpt lon="101.333955" lat="13.644495">
                <ele>36.190000</ele>
                <time>2014-12-13T08:50:04Z</time>
            </trkpt>
            <trkpt lon="101.333939" lat="13.646653">
                <ele>34.740000</ele>
                <time>2014-12-13T08:50:58Z</time>
            </trkpt>
            <trkpt lon="101.334014" lat="13.645924">
                <ele>37.630000</ele>
                <time>2014-12-13T08:51:37Z</time>
            </trkpt>
            <trkpt lon="101.333943" lat="13.646514">
                <ele>35.230000</ele>
                <time>2014-12-13T08:51:56Z</time>
            </trkpt>
            <trkpt lon="101.334125" lat="13.648148">
                <ele>34.260000</ele>
                <time>2014-12-13T08:52:40Z</time>
            </trkpt>
            <trkpt lon="101.331844" lat="13.649564">
                <ele>28.020000</ele>
                <time>2014-12-13T08:53:31Z</time>
            </trkpt>
            <trkpt lon="101.329582" lat="13.651364">
                <ele>26.570000</ele>
                <time>2014-12-13T08:54:20Z</time>
            </trkpt>
            <trkpt lon="101.329595" lat="13.655174">
                <ele>24.170000</ele>
                <time>2014-12-13T08:55:35Z</time>
            </trkpt>
            <trkpt lon="101.329366" lat="13.655818">
                <ele>23.690000</ele>
                <time>2014-12-13T08:55:49Z</time>
            </trkpt>
            <trkpt lon="101.329868" lat="13.656279">
                <ele>23.210000</ele>
                <time>2014-12-13T08:56:04Z</time>
            </trkpt>
            <trkpt lon="101.329904" lat="13.656773">
                <ele>23.210000</ele>
                <time>2014-12-13T08:56:14Z</time>
            </trkpt>
            <trkpt lon="101.329675" lat="13.657423">
                <ele>22.250000</ele>
                <time>2014-12-13T08:56:27Z</time>
            </trkpt>
            <trkpt lon="101.329361" lat="13.657646">
                <ele>20.810000</ele>
                <time>2014-12-13T08:56:34Z</time>
            </trkpt>
            <trkpt lon="101.329265" lat="13.657718">
                <ele>20.320000</ele>
                <time>2014-12-13T08:56:36Z</time>
            </trkpt>
            <trkpt lon="101.328828" lat="13.658454">
                <ele>19.840000</ele>
                <time>2014-12-13T08:56:51Z</time>
            </trkpt>
            <trkpt lon="101.328435" lat="13.659865">
                <ele>19.360000</ele>
                <time>2014-12-13T08:57:20Z</time>
            </trkpt>
            <trkpt lon="101.328112" lat="13.660342">
                <ele>19.360000</ele>
                <time>2014-12-13T08:57:31Z</time>
            </trkpt>
            <trkpt lon="101.328037" lat="13.660555">
                <ele>19.840000</ele>
                <time>2014-12-13T08:57:35Z</time>
            </trkpt>
            <trkpt lon="101.327907" lat="13.661190">
                <ele>19.360000</ele>
                <time>2014-12-13T08:57:47Z</time>
            </trkpt>
            <trkpt lon="101.327884" lat="13.661665">
                <ele>18.880000</ele>
                <time>2014-12-13T08:57:57Z</time>
            </trkpt>
            <trkpt lon="101.328200" lat="13.661978">
                <ele>17.920000</ele>
                <time>2014-12-13T08:58:06Z</time>
            </trkpt>
            <trkpt lon="101.328514" lat="13.662026">
                <ele>18.880000</ele>
                <time>2014-12-13T08:58:12Z</time>
            </trkpt>
            <trkpt lon="101.328685" lat="13.662214">
                <ele>19.360000</ele>
                <time>2014-12-13T08:58:18Z</time>
            </trkpt>
            <trkpt lon="101.328800" lat="13.662913">
                <ele>19.840000</ele>
                <time>2014-12-13T08:58:33Z</time>
            </trkpt>
            <trkpt lon="101.328776" lat="13.663228">
                <ele>21.290000</ele>
                <time>2014-12-13T08:58:41Z</time>
            </trkpt>
            <trkpt lon="101.328465" lat="13.663711">
                <ele>23.210000</ele>
                <time>2014-12-13T08:58:52Z</time>
            </trkpt>
            <trkpt lon="101.327976" lat="13.664074">
                <ele>23.690000</ele>
                <time>2014-12-13T08:59:02Z</time>
            </trkpt>
            <trkpt lon="101.327450" lat="13.664361">
                <ele>21.290000</ele>
                <time>2014-12-13T08:59:12Z</time>
            </trkpt>
            <trkpt lon="101.325958" lat="13.666009">
                <ele>18.400000</ele>
                <time>2014-12-13T08:59:49Z</time>
            </trkpt>
            <trkpt lon="101.325922" lat="13.666581">
                <ele>17.440000</ele>
                <time>2014-12-13T09:00:00Z</time>
            </trkpt>
            <trkpt lon="101.326108" lat="13.666993">
                <ele>17.440000</ele>
                <time>2014-12-13T09:00:08Z</time>
            </trkpt>
            <trkpt lon="101.326255" lat="13.667172">
                <ele>16.960000</ele>
                <time>2014-12-13T09:00:12Z</time>
            </trkpt>
            <trkpt lon="101.326685" lat="13.668576">
                <ele>18.880000</ele>
                <time>2014-12-13T09:00:39Z</time>
            </trkpt>
            <trkpt lon="101.326842" lat="13.669127">
                <ele>18.400000</ele>
                <time>2014-12-13T09:00:50Z</time>
            </trkpt>
            <trkpt lon="101.326710" lat="13.669325">
                <ele>18.400000</ele>
                <time>2014-12-13T09:00:55Z</time>
            </trkpt>
            <trkpt lon="101.326605" lat="13.669367">
                <ele>18.400000</ele>
                <time>2014-12-13T09:00:57Z</time>
            </trkpt>
            <trkpt lon="101.325934" lat="13.669482">
                <ele>17.920000</ele>
                <time>2014-12-13T09:01:16Z</time>
            </trkpt>
            <trkpt lon="101.325534" lat="13.669720">
                <ele>18.400000</ele>
                <time>2014-12-13T09:01:25Z</time>
            </trkpt>
            <trkpt lon="101.325093" lat="13.670434">
                <ele>16.960000</ele>
                <time>2014-12-13T09:01:40Z</time>
            </trkpt>
            <trkpt lon="101.323673" lat="13.671480">
                <ele>16.960000</ele>
                <time>2014-12-13T09:02:09Z</time>
            </trkpt>
            <trkpt lon="101.323378" lat="13.671549">
                <ele>16.960000</ele>
                <time>2014-12-13T09:02:14Z</time>
            </trkpt>
            <trkpt lon="101.322947" lat="13.671587">
                <ele>16.480000</ele>
                <time>2014-12-13T09:02:21Z</time>
            </trkpt>
            <trkpt lon="101.320498" lat="13.673088">
                <ele>17.440000</ele>
                <time>2014-12-13T09:03:17Z</time>
            </trkpt>
            <trkpt lon="101.319968" lat="13.673092">
                <ele>18.400000</ele>
                <time>2014-12-13T09:03:35Z</time>
            </trkpt>
            <trkpt lon="101.319961" lat="13.672993">
                <ele>19.840000</ele>
                <time>2014-12-13T09:03:39Z</time>
            </trkpt>
            <trkpt lon="101.320012" lat="13.672343">
                <ele>18.400000</ele>
                <time>2014-12-13T09:03:53Z</time>
            </trkpt>
            <trkpt lon="101.320125" lat="13.672061">
                <ele>17.440000</ele>
                <time>2014-12-13T09:03:59Z</time>
            </trkpt>
            <trkpt lon="101.319975" lat="13.670318">
                <ele>19.360000</ele>
                <time>2014-12-13T09:04:32Z</time>
            </trkpt>
            <trkpt lon="101.320513" lat="13.669207">
                <ele>20.320000</ele>
                <time>2014-12-13T09:04:55Z</time>
            </trkpt>
            <trkpt lon="101.320520" lat="13.669171">
                <ele>19.840000</ele>
                <time>2014-12-13T09:04:56Z</time>
            </trkpt>
            <trkpt lon="101.320358" lat="13.669163">
                <ele>18.880000</ele>
                <time>2014-12-13T09:05:03Z</time>
            </trkpt>
            <trkpt lon="101.319713" lat="13.669686">
                <ele>16.480000</ele>
                <time>2014-12-13T09:05:19Z</time>
            </trkpt>
            <trkpt lon="101.318860" lat="13.670270">
                <ele>15.040000</ele>
                <time>2014-12-13T09:05:38Z</time>
            </trkpt>
            <trkpt lon="101.318506" lat="13.670207">
                <ele>16.000000</ele>
                <time>2014-12-13T09:05:47Z</time>
            </trkpt>
            <trkpt lon="101.318113" lat="13.669068">
                <ele>18.400000</ele>
                <time>2014-12-13T09:06:11Z</time>
            </trkpt>
            <trkpt lon="101.318306" lat="13.668615">
                <ele>18.880000</ele>
                <time>2014-12-13T09:06:22Z</time>
            </trkpt>
            <trkpt lon="101.318282" lat="13.668209">
                <ele>18.400000</ele>
                <time>2014-12-13T09:06:30Z</time>
            </trkpt>
            <trkpt lon="101.317901" lat="13.667306">
                <ele>17.920000</ele>
                <time>2014-12-13T09:06:48Z</time>
            </trkpt>
            <trkpt lon="101.317845" lat="13.666572">
                <ele>18.400000</ele>
                <time>2014-12-13T09:07:02Z</time>
            </trkpt>
            <trkpt lon="101.317296" lat="13.665779">
                <ele>16.480000</ele>
                <time>2014-12-13T09:07:21Z</time>
            </trkpt>
            <trkpt lon="101.317681" lat="13.665269">
                <ele>18.400000</ele>
                <time>2014-12-13T09:07:37Z</time>
            </trkpt>
            <trkpt lon="101.317739" lat="13.664763">
                <ele>19.840000</ele>
                <time>2014-12-13T09:07:49Z</time>
            </trkpt>
            <trkpt lon="101.318192" lat="13.663681">
                <ele>22.250000</ele>
                <time>2014-12-13T09:08:18Z</time>
            </trkpt>
            <trkpt lon="101.318058" lat="13.662445">
                <ele>24.170000</ele>
                <time>2014-12-13T09:08:52Z</time>
            </trkpt>
            <trkpt lon="101.318543" lat="13.661880">
                <ele>23.210000</ele>
                <time>2014-12-13T09:09:11Z</time>
            </trkpt>
            <trkpt lon="101.318405" lat="13.661217">
                <ele>24.650000</ele>
                <time>2014-12-13T09:09:27Z</time>
            </trkpt>
            <trkpt lon="101.318406" lat="13.660374">
                <ele>26.570000</ele>
                <time>2014-12-13T09:09:47Z</time>
            </trkpt>
            <trkpt lon="101.318538" lat="13.660165">
                <ele>27.050000</ele>
                <time>2014-12-13T09:09:52Z</time>
            </trkpt>
            <trkpt lon="101.318610" lat="13.659844">
                <ele>26.570000</ele>
                <time>2014-12-13T09:09:59Z</time>
            </trkpt>
            <trkpt lon="101.318345" lat="13.659763">
                <ele>25.610000</ele>
                <time>2014-12-13T09:10:09Z</time>
            </trkpt>
            <trkpt lon="101.316921" lat="13.659987">
                <ele>24.170000</ele>
                <time>2014-12-13T09:10:42Z</time>
            </trkpt>
            <trkpt lon="101.316693" lat="13.659844">
                <ele>23.690000</ele>
                <time>2014-12-13T09:10:49Z</time>
            </trkpt>
            <trkpt lon="101.316450" lat="13.659232">
                <ele>24.650000</ele>
                <time>2014-12-13T09:11:06Z</time>
            </trkpt>
            <trkpt lon="101.316702" lat="13.658934">
                <ele>24.170000</ele>
                <time>2014-12-13T09:11:20Z</time>
            </trkpt>
            <trkpt lon="101.316484" lat="13.658360">
                <ele>24.650000</ele>
                <time>2014-12-13T09:11:35Z</time>
            </trkpt>
            <trkpt lon="101.316253" lat="13.658177">
                <ele>24.650000</ele>
                <time>2014-12-13T09:11:43Z</time>
            </trkpt>
            <trkpt lon="101.316122" lat="13.658216">
                <ele>24.650000</ele>
                <time>2014-12-13T09:11:46Z</time>
            </trkpt>
            <trkpt lon="101.314853" lat="13.658530">
                <ele>22.250000</ele>
                <time>2014-12-13T09:12:10Z</time>
            </trkpt>
            <trkpt lon="101.314248" lat="13.658464">
                <ele>20.320000</ele>
                <time>2014-12-13T09:12:23Z</time>
            </trkpt>
            <trkpt lon="101.313572" lat="13.659119">
                <ele>18.400000</ele>
                <time>2014-12-13T09:12:40Z</time>
            </trkpt>
            <trkpt lon="101.313461" lat="13.659600">
                <ele>16.960000</ele>
                <time>2014-12-13T09:12:49Z</time>
            </trkpt>
            <trkpt lon="101.313421" lat="13.660464">
                <ele>15.040000</ele>
                <time>2014-12-13T09:13:05Z</time>
            </trkpt>
            <trkpt lon="101.313070" lat="13.661728">
                <ele>16.480000</ele>
                <time>2014-12-13T09:13:28Z</time>
            </trkpt>
            <trkpt lon="101.313024" lat="13.662017">
                <ele>16.480000</ele>
                <time>2014-12-13T09:13:34Z</time>
            </trkpt>
            <trkpt lon="101.312788" lat="13.662237">
                <ele>16.480000</ele>
                <time>2014-12-13T09:13:41Z</time>
            </trkpt>
            <trkpt lon="101.312623" lat="13.662347">
                <ele>16.000000</ele>
                <time>2014-12-13T09:13:47Z</time>
            </trkpt>
            <trkpt lon="101.312717" lat="13.663043">
                <ele>13.600000</ele>
                <time>2014-12-13T09:14:01Z</time>
            </trkpt>
            <trkpt lon="101.313286" lat="13.664513">
                <ele>15.040000</ele>
                <time>2014-12-13T09:14:31Z</time>
            </trkpt>
            <trkpt lon="101.313766" lat="13.665851">
                <ele>14.080000</ele>
                <time>2014-12-13T09:14:57Z</time>
            </trkpt>
            <trkpt lon="101.313959" lat="13.665950">
                <ele>13.120000</ele>
                <time>2014-12-13T09:15:02Z</time>
            </trkpt>
            <trkpt lon="101.314343" lat="13.665795">
                <ele>13.600000</ele>
                <time>2014-12-13T09:15:10Z</time>
            </trkpt>
            <trkpt lon="101.314629" lat="13.665920">
                <ele>12.630000</ele>
                <time>2014-12-13T09:15:16Z</time>
            </trkpt>
            <trkpt lon="101.314924" lat="13.666274">
                <ele>12.630000</ele>
                <time>2014-12-13T09:15:24Z</time>
            </trkpt>
            <trkpt lon="101.315254" lat="13.667277">
                <ele>13.600000</ele>
                <time>2014-12-13T09:15:44Z</time>
            </trkpt>
            <trkpt lon="101.315785" lat="13.668052">
                <ele>13.600000</ele>
                <time>2014-12-13T09:16:02Z</time>
            </trkpt>
            <trkpt lon="101.315424" lat="13.668549">
                <ele>14.080000</ele>
                <time>2014-12-13T09:16:19Z</time>
            </trkpt>
            <trkpt lon="101.315521" lat="13.668768">
                <ele>13.600000</ele>
                <time>2014-12-13T09:16:24Z</time>
            </trkpt>
            <trkpt lon="101.315400" lat="13.668981">
                <ele>13.120000</ele>
                <time>2014-12-13T09:16:30Z</time>
            </trkpt>
            <trkpt lon="101.314758" lat="13.669178">
                <ele>14.080000</ele>
                <time>2014-12-13T09:16:43Z</time>
            </trkpt>
            <trkpt lon="101.314653" lat="13.669354">
                <ele>14.080000</ele>
                <time>2014-12-13T09:16:48Z</time>
            </trkpt>
            <trkpt lon="101.315313" lat="13.670817">
                <ele>13.600000</ele>
                <time>2014-12-13T09:17:21Z</time>
            </trkpt>
            <trkpt lon="101.315781" lat="13.671454">
                <ele>13.120000</ele>
                <time>2014-12-13T09:17:37Z</time>
            </trkpt>
            <trkpt lon="101.316397" lat="13.672198">
                <ele>13.120000</ele>
                <time>2014-12-13T09:17:56Z</time>
            </trkpt>
            <trkpt lon="101.316547" lat="13.672727">
                <ele>14.080000</ele>
                <time>2014-12-13T09:18:08Z</time>
            </trkpt>
            <trkpt lon="101.316831" lat="13.673645">
                <ele>13.600000</ele>
                <time>2014-12-13T09:18:29Z</time>
            </trkpt>
            <trkpt lon="101.316728" lat="13.673777">
                <ele>13.600000</ele>
                <time>2014-12-13T09:18:34Z</time>
            </trkpt>
            <trkpt lon="101.316252" lat="13.673868">
                <ele>14.560000</ele>
                <time>2014-12-13T09:18:46Z</time>
            </trkpt>
            <trkpt lon="101.316122" lat="13.673847">
                <ele>14.560000</ele>
                <time>2014-12-13T09:18:49Z</time>
            </trkpt>
            <trkpt lon="101.315925" lat="13.673846">
                <ele>15.040000</ele>
                <time>2014-12-13T09:18:53Z</time>
            </trkpt>
            <trkpt lon="101.314961" lat="13.673759">
                <ele>14.080000</ele>
                <time>2014-12-13T09:19:13Z</time>
            </trkpt>
            <trkpt lon="101.314504" lat="13.673871">
                <ele>15.040000</ele>
                <time>2014-12-13T09:19:21Z</time>
            </trkpt>
            <trkpt lon="101.313897" lat="13.674043">
                <ele>13.600000</ele>
                <time>2014-12-13T09:19:31Z</time>
            </trkpt>
            <trkpt lon="101.313574" lat="13.674257">
                <ele>13.600000</ele>
                <time>2014-12-13T09:19:37Z</time>
            </trkpt>
            <trkpt lon="101.312651" lat="13.674382">
                <ele>13.600000</ele>
                <time>2014-12-13T09:19:56Z</time>
            </trkpt>
            <trkpt lon="101.313336" lat="13.675778">
                <ele>13.120000</ele>
                <time>2014-12-13T09:20:36Z</time>
            </trkpt>
            <trkpt lon="101.313876" lat="13.677718">
                <ele>13.120000</ele>
                <time>2014-12-13T09:21:14Z</time>
            </trkpt>
            <trkpt lon="101.313811" lat="13.677923">
                <ele>12.630000</ele>
                <time>2014-12-13T09:21:22Z</time>
            </trkpt>
            <trkpt lon="101.313618" lat="13.678084">
                <ele>12.150000</ele>
                <time>2014-12-13T09:21:30Z</time>
            </trkpt>
            <trkpt lon="101.313905" lat="13.678500">
                <ele>10.710000</ele>
                <time>2014-12-13T09:21:44Z</time>
            </trkpt>
            <trkpt lon="101.314206" lat="13.678699">
                <ele>10.710000</ele>
                <time>2014-12-13T09:21:52Z</time>
            </trkpt>
            <trkpt lon="101.318083" lat="13.680903">
                <ele>13.120000</ele>
                <time>2014-12-13T09:23:22Z</time>
            </trkpt>
            <trkpt lon="101.321988" lat="13.683164">
                <ele>13.120000</ele>
                <time>2014-12-13T09:24:49Z</time>
            </trkpt>
            <trkpt lon="101.325929" lat="13.688367">
                <ele>14.080000</ele>
                <time>2014-12-13T09:27:08Z</time>
            </trkpt>
            <trkpt lon="101.328306" lat="13.689377">
                <ele>12.630000</ele>
                <time>2014-12-13T09:28:04Z</time>
            </trkpt>
            <trkpt lon="101.330525" lat="13.703601">
                <ele>12.150000</ele>
                <time>2014-12-13T09:32:27Z</time>
            </trkpt>
            <trkpt lon="101.330489" lat="13.703356">
                <ele>14.080000</ele>
                <time>2014-12-13T09:32:41Z</time>
            </trkpt>
            <trkpt lon="101.326624" lat="13.702977">
                <ele>12.630000</ele>
                <time>2014-12-13T09:33:58Z</time>
            </trkpt>
            <trkpt lon="101.324436" lat="13.701996">
                <ele>11.670000</ele>
                <time>2014-12-13T09:34:39Z</time>
            </trkpt>
            <trkpt lon="101.323390" lat="13.701755">
                <ele>10.710000</ele>
                <time>2014-12-13T09:34:59Z</time>
            </trkpt>
            <trkpt lon="101.323325" lat="13.701743">
                <ele>10.230000</ele>
                <time>2014-12-13T09:35:01Z</time>
            </trkpt>
            <trkpt lon="101.322926" lat="13.702054">
                <ele>9.750000</ele>
                <time>2014-12-13T09:35:12Z</time>
            </trkpt>
            <trkpt lon="101.322720" lat="13.702661">
                <ele>10.710000</ele>
                <time>2014-12-13T09:35:28Z</time>
            </trkpt>
            <trkpt lon="101.322612" lat="13.703133">
                <ele>8.790000</ele>
                <time>2014-12-13T09:35:38Z</time>
            </trkpt>
            <trkpt lon="101.322724" lat="13.703323">
                <ele>9.270000</ele>
                <time>2014-12-13T09:35:43Z</time>
            </trkpt>
            <trkpt lon="101.323684" lat="13.703962">
                <ele>11.190000</ele>
                <time>2014-12-13T09:36:06Z</time>
            </trkpt>
            <trkpt lon="101.325093" lat="13.704252">
                <ele>11.190000</ele>
                <time>2014-12-13T09:36:35Z</time>
            </trkpt>
            <trkpt lon="101.324978" lat="13.704800">
                <ele>10.710000</ele>
                <time>2014-12-13T09:36:48Z</time>
            </trkpt>
            <trkpt lon="101.326055" lat="13.705274">
                <ele>11.670000</ele>
                <time>2014-12-13T09:37:14Z</time>
            </trkpt>
            <trkpt lon="101.327320" lat="13.706236">
                <ele>11.190000</ele>
                <time>2014-12-13T09:37:52Z</time>
            </trkpt>
            <trkpt lon="101.327372" lat="13.706304">
                <ele>11.190000</ele>
                <time>2014-12-13T09:37:56Z</time>
            </trkpt>
            <trkpt lon="101.327355" lat="13.706271">
                <ele>11.190000</ele>
                <time>2014-12-13T09:38:00Z</time>
            </trkpt>
            <trkpt lon="101.327637" lat="13.706864">
                <ele>11.190000</ele>
                <time>2014-12-13T09:38:19Z</time>
            </trkpt>
            <trkpt lon="101.327557" lat="13.707012">
                <ele>11.190000</ele>
                <time>2014-12-13T09:38:23Z</time>
            </trkpt>
            <trkpt lon="101.327278" lat="13.707322">
                <ele>10.230000</ele>
                <time>2014-12-13T09:38:33Z</time>
            </trkpt>
            <trkpt lon="101.327053" lat="13.707263">
                <ele>10.710000</ele>
                <time>2014-12-13T09:38:38Z</time>
            </trkpt>
            <trkpt lon="101.326881" lat="13.707388">
                <ele>10.710000</ele>
                <time>2014-12-13T09:38:44Z</time>
            </trkpt>
            <trkpt lon="101.326604" lat="13.708811">
                <ele>10.710000</ele>
                <time>2014-12-13T09:39:14Z</time>
            </trkpt>
            <trkpt lon="101.326140" lat="13.708915">
                <ele>11.190000</ele>
                <time>2014-12-13T09:39:27Z</time>
            </trkpt>
            <trkpt lon="101.326080" lat="13.709181">
                <ele>11.190000</ele>
                <time>2014-12-13T09:39:33Z</time>
            </trkpt>
            <trkpt lon="101.326190" lat="13.709335">
                <ele>10.710000</ele>
                <time>2014-12-13T09:39:39Z</time>
            </trkpt>
            <trkpt lon="101.326620" lat="13.709462">
                <ele>10.230000</ele>
                <time>2014-12-13T09:39:49Z</time>
            </trkpt>
            <trkpt lon="101.326668" lat="13.709668">
                <ele>10.230000</ele>
                <time>2014-12-13T09:40:02Z</time>
            </trkpt>
            <trkpt lon="101.326686" lat="13.709525">
                <ele>10.230000</ele>
                <time>2014-12-13T09:40:11Z</time>
            </trkpt>
            <trkpt lon="101.326332" lat="13.709366">
                <ele>10.710000</ele>
                <time>2014-12-13T09:40:23Z</time>
            </trkpt>
            <trkpt lon="101.326002" lat="13.709169">
                <ele>10.710000</ele>
                <time>2014-12-13T09:40:34Z</time>
            </trkpt>
            <trkpt lon="101.325166" lat="13.708890">
                <ele>10.710000</ele>
                <time>2014-12-13T09:40:57Z</time>
            </trkpt>
            <trkpt lon="101.325261" lat="13.710090">
                <ele>11.190000</ele>
                <time>2014-12-13T09:41:28Z</time>
            </trkpt>
            <trkpt lon="101.326280" lat="13.717081">
                <ele>11.670000</ele>
                <time>2014-12-13T09:43:46Z</time>
            </trkpt>
            <trkpt lon="101.326708" lat="13.719630">
                <ele>10.710000</ele>
                <time>2014-12-13T09:44:44Z</time>
            </trkpt>
            <trkpt lon="101.331070" lat="13.724303">
                <ele>15.040000</ele>
                <time>2014-12-13T09:46:54Z</time>
            </trkpt>
            <trkpt lon="101.333452" lat="13.726840">
                <ele>14.080000</ele>
                <time>2014-12-13T09:48:05Z</time>
            </trkpt>
            <trkpt lon="101.334617" lat="13.727315">
                <ele>12.630000</ele>
                <time>2014-12-13T09:48:30Z</time>
            </trkpt>
            <trkpt lon="101.336286" lat="13.727377">
                <ele>12.150000</ele>
                <time>2014-12-13T09:49:09Z</time>
            </trkpt>
            <trkpt lon="101.337786" lat="13.733057">
                <ele>13.600000</ele>
                <time>2014-12-13T09:51:04Z</time>
            </trkpt>
            <trkpt lon="101.338054" lat="13.734117">
                <ele>12.630000</ele>
                <time>2014-12-13T09:51:25Z</time>
            </trkpt>
            <trkpt lon="101.338305" lat="13.734982">
                <ele>13.120000</ele>
                <time>2014-12-13T09:51:43Z</time>
            </trkpt>
            <trkpt lon="101.338368" lat="13.735094">
                <ele>13.120000</ele>
                <time>2014-12-13T09:51:46Z</time>
            </trkpt>
            <trkpt lon="101.338475" lat="13.735107">
                <ele>13.600000</ele>
                <time>2014-12-13T09:51:49Z</time>
            </trkpt>
            <trkpt lon="101.338576" lat="13.734837">
                <ele>17.440000</ele>
                <time>2014-12-13T09:52:06Z</time>
            </trkpt>
            <trkpt lon="101.338571" lat="13.734777">
                <ele>12.630000</ele>
                <time>2014-12-13T09:52:40Z</time>
            </trkpt>
            <trkpt lon="101.338575" lat="13.734775">
                <ele>12.630000</ele>
                <time>2014-12-13T09:53:13Z</time>
            </trkpt>
        </trkseg>
    </trk>
</gpx>